createdAt,value
2017-11-11T00:01:13.472Z,9.12
2017-11-11T00:03:41.006Z,8.63
2017-11-11T00:06:09.350Z,8.63
2017-11-11T00:08:36.886Z,7.73
2017-11-11T00:11:04.418Z,10.78
2017-11-11T00:13:31.962Z,8.40
2017-11-11T00:16:00.246Z,7.88
2017-11-11T00:18:27.788Z,7.62
2017-11-11T00:20:55.301Z,9.52
2017-11-11T00:23:22.846Z,8.45
2017-11-11T00:25:51.137Z,8.90
2017-11-11T00:28:18.681Z,8.15
2017-11-11T00:30:46.205Z,7.98
2017-11-11T00:33:14.527Z,8.83
2017-11-11T00:35:42.824Z,7.25
2017-11-11T00:38:10.393Z,8.62
2017-11-11T00:40:37.918Z,7.48
2017-11-11T00:43:05.446Z,7.40
2017-11-11T00:45:33.753Z,7.57
2017-11-11T00:48:01.277Z,7.50
2017-11-11T00:50:28.823Z,8.17
2017-11-11T00:52:56.358Z,8.43
2017-11-11T00:55:24.619Z,8.60
2017-11-11T00:57:52.905Z,8.65
2017-11-11T01:00:20.448Z,9.88
2017-11-11T01:02:47.970Z,9.45
2017-11-11T01:05:15.537Z,9.98
2017-11-11T01:07:43.825Z,9.58
2017-11-11T01:10:11.355Z,8.98
2017-11-11T01:12:38.902Z,8.48
2017-11-11T01:15:06.418Z,9.43
2017-11-11T01:17:34.725Z,8.18
2017-11-11T01:20:02.252Z,8.33
2017-11-11T01:22:30.571Z,9.12
2017-11-11T01:24:58.098Z,8.17
2017-11-11T01:27:26.414Z,8.62
2017-11-11T01:29:53.943Z,8.62
2017-11-11T01:32:21.489Z,7.70
2017-11-11T01:34:49.013Z,7.72
2017-11-11T01:37:17.338Z,8.40
2017-11-11T01:39:44.869Z,8.50
2017-11-11T01:42:12.389Z,10.00
2017-11-11T01:44:39.938Z,8.33
2017-11-11T01:47:08.225Z,8.03
2017-11-11T01:49:35.773Z,9.03
2017-11-11T01:52:03.298Z,10.28
2017-11-11T01:54:30.845Z,9.88
2017-11-11T01:56:59.142Z,9.33
2017-11-11T01:59:26.705Z,8.80
2017-11-11T02:01:54.239Z,8.75
2017-11-11T02:04:21.771Z,8.93
2017-11-11T02:06:50.094Z,10.08
2017-11-11T02:09:17.635Z,9.32
2017-11-11T02:11:45.205Z,10.40
2017-11-11T02:14:12.722Z,9.22
2017-11-11T02:16:41.030Z,9.77
2017-11-11T02:19:08.553Z,11.03
2017-11-11T02:21:36.126Z,10.53
2017-11-11T02:24:03.654Z,9.82
2017-11-11T02:26:31.949Z,10.08
2017-11-11T02:28:59.493Z,10.57
2017-11-11T02:31:27.021Z,10.07
2017-11-11T02:33:55.343Z,10.83
2017-11-11T02:36:23.635Z,10.33
2017-11-11T02:38:51.181Z,11.90
2017-11-11T02:41:18.710Z,11.47
2017-11-11T02:43:46.302Z,10.65
2017-11-11T02:46:14.600Z,10.77
2017-11-11T02:48:42.129Z,11.42
2017-11-11T02:51:09.677Z,11.82
2017-11-11T02:53:37.201Z,11.43
2017-11-11T02:56:05.512Z,10.57
2017-11-11T02:58:33.043Z,10.97
2017-11-11T03:01:00.584Z,10.40
2017-11-11T03:03:28.114Z,10.23
2017-11-11T03:05:56.448Z,10.18
2017-11-11T03:08:23.999Z,10.48
2017-11-11T03:10:52.293Z,10.72
2017-11-11T03:13:20.602Z,10.37
2017-11-11T03:15:48.899Z,8.83
2017-11-11T03:18:16.437Z,9.13
2017-11-11T03:20:43.969Z,10.38
2017-11-11T03:23:11.522Z,9.72
2017-11-11T03:25:39.808Z,9.42
2017-11-11T03:28:07.370Z,9.52
2017-11-11T03:30:34.896Z,8.65
2017-11-11T03:33:02.422Z,8.30
2017-11-11T03:35:30.731Z,9.28
2017-11-11T03:37:58.255Z,9.15
2017-11-11T03:40:25.804Z,8.48
2017-11-11T03:42:53.321Z,8.57
2017-11-11T03:45:20.862Z,7.83
2017-11-11T03:47:49.155Z,8.95
2017-11-11T03:50:16.714Z,8.55
2017-11-11T03:52:44.245Z,8.22
2017-11-11T03:55:12.544Z,7.72
2017-11-11T03:57:40.859Z,8.05
2017-11-11T04:00:08.387Z,8.43
2017-11-11T04:02:35.941Z,8.48
2017-11-11T04:05:03.461Z,8.65
2017-11-11T04:07:31.785Z,8.02
2017-11-11T04:09:59.310Z,9.15
2017-11-11T04:12:26.844Z,7.17
2017-11-11T04:14:54.386Z,8.13
2017-11-11T04:17:22.679Z,6.60
2017-11-11T04:19:50.221Z,7.62
2017-11-11T04:22:17.754Z,7.37
2017-11-11T04:24:45.346Z,7.17
2017-11-11T04:27:13.638Z,7.45
2017-11-11T04:29:41.157Z,6.27
2017-11-11T04:32:08.697Z,7.98
2017-11-11T04:34:36.226Z,6.27
2017-11-11T04:37:04.544Z,6.87
2017-11-11T04:39:32.076Z,7.18
2017-11-11T04:42:00.410Z,7.00
2017-11-11T04:44:27.935Z,6.35
2017-11-11T04:46:56.231Z,6.25
2017-11-11T04:49:23.769Z,6.53
2017-11-11T04:51:51.293Z,7.85
2017-11-11T04:54:18.833Z,6.53
2017-11-11T04:56:47.117Z,6.63
2017-11-11T04:59:14.658Z,9.80
2017-11-11T05:01:42.182Z,7.20
2017-11-11T05:04:09.754Z,8.62
2017-11-11T05:06:38.046Z,6.32
2017-11-11T05:09:05.577Z,8.48
2017-11-11T05:11:33.134Z,11.47
2017-11-11T05:14:00.658Z,8.20
2017-11-11T05:16:28.982Z,7.42
2017-11-11T05:18:56.502Z,8.03
2017-11-11T05:21:24.818Z,6.77
2017-11-11T05:23:52.342Z,7.50
2017-11-11T05:26:20.674Z,7.43
2017-11-11T05:28:48.202Z,7.00
2017-11-11T05:31:15.734Z,6.58
2017-11-11T05:33:43.286Z,6.22
2017-11-11T05:36:11.570Z,8.25
2017-11-11T05:38:39.118Z,6.58
2017-11-11T05:41:06.648Z,6.05
2017-11-11T05:43:34.198Z,6.22
2017-11-11T05:46:02.525Z,5.73
2017-11-11T05:48:30.098Z,6.23
2017-11-11T05:50:57.618Z,6.18
2017-11-11T05:53:25.149Z,6.50
2017-11-11T05:55:53.465Z,6.05
2017-11-11T05:58:20.998Z,5.77
2017-11-11T06:00:48.542Z,5.88
2017-11-11T06:03:16.063Z,5.75
2017-11-11T06:05:44.378Z,6.68
2017-11-11T06:08:11.901Z,6.50
2017-11-11T06:10:39.471Z,6.50
2017-11-11T06:13:06.989Z,6.08
2017-11-11T06:15:35.273Z,6.20
2017-11-11T06:18:02.821Z,6.68
2017-11-11T06:20:30.347Z,5.90
2017-11-11T06:22:57.889Z,5.63
2017-11-11T06:25:26.194Z,6.10
2017-11-11T06:27:53.743Z,5.03
2017-11-11T06:30:21.271Z,5.38
2017-11-11T06:32:48.813Z,5.33
2017-11-11T06:35:16.342Z,6.00
2017-11-11T06:37:44.626Z,6.05
2017-11-11T06:40:12.169Z,6.05
2017-11-11T06:42:39.685Z,6.00
2017-11-11T06:45:07.222Z,6.63
2017-11-11T06:47:35.505Z,5.83
2017-11-11T06:50:03.050Z,5.70
2017-11-11T06:52:31.337Z,6.05
2017-11-11T06:54:58.905Z,6.52
2017-11-11T06:57:27.193Z,5.98
2017-11-11T06:59:54.721Z,6.03
2017-11-11T07:02:22.265Z,5.95
2017-11-11T07:04:49.795Z,8.15
2017-11-11T07:07:18.114Z,5.90
2017-11-11T07:09:45.633Z,5.62
2017-11-11T07:12:13.177Z,5.60
2017-11-11T07:14:40.696Z,5.13
2017-11-11T07:17:09.027Z,6.47
2017-11-11T07:19:36.540Z,5.48
2017-11-11T07:22:04.839Z,9.45
2017-11-11T07:24:33.151Z,5.57
2017-11-11T07:27:01.444Z,5.05
2017-11-11T07:29:29.753Z,4.95
2017-11-11T07:31:57.273Z,6.28
2017-11-11T07:34:24.823Z,4.43
2017-11-11T07:36:53.122Z,4.47
2017-11-11T07:39:20.686Z,4.57
2017-11-11T07:41:48.210Z,5.35
2017-11-11T07:44:15.735Z,4.65
2017-11-11T07:46:44.042Z,5.30
2017-11-11T07:49:11.562Z,4.38
2017-11-11T07:51:39.874Z,4.23
2017-11-11T07:54:07.394Z,4.83
2017-11-11T07:56:35.710Z,5.32
2017-11-11T07:59:03.238Z,9.12
2017-11-11T08:01:30.815Z,6.72
2017-11-11T08:03:58.346Z,5.33
2017-11-11T08:06:26.625Z,4.45
2017-11-11T08:08:54.166Z,4.10
2017-11-11T08:11:21.686Z,3.97
2017-11-11T08:13:49.225Z,4.97
2017-11-11T08:16:17.518Z,4.15
2017-11-11T08:18:45.062Z,4.10
2017-11-11T08:21:12.584Z,4.03
2017-11-11T08:23:40.120Z,4.07
2017-11-11T08:26:08.410Z,3.60
2017-11-11T08:28:35.949Z,4.22
2017-11-11T08:31:03.475Z,4.55
2017-11-11T08:33:31.022Z,4.32
2017-11-11T08:35:59.316Z,4.52
2017-11-11T08:38:27.633Z,4.07
2017-11-11T08:40:55.161Z,4.88
2017-11-11T08:43:22.705Z,6.23
2017-11-11T08:45:50.999Z,4.55
2017-11-11T08:48:18.534Z,4.07
2017-11-11T08:50:46.832Z,4.40
2017-11-11T08:53:15.118Z,4.80
2017-11-11T08:55:43.434Z,4.25
2017-11-11T08:58:10.960Z,4.05
2017-11-11T09:00:38.496Z,4.90
2017-11-11T09:03:06.004Z,4.30
2017-11-11T09:05:34.311Z,4.37
2017-11-11T09:08:01.829Z,4.12
2017-11-11T09:10:29.370Z,3.78
2017-11-11T09:12:56.894Z,3.90
2017-11-11T09:15:25.179Z,3.50
2017-11-11T09:17:53.461Z,3.20
2017-11-11T09:20:21.006Z,3.43
2017-11-11T09:22:48.521Z,3.20
2017-11-11T09:25:16.066Z,3.60
2017-11-11T09:27:44.361Z,3.75
2017-11-11T09:30:11.920Z,4.73
2017-11-11T09:32:40.209Z,8.68
2017-11-11T09:35:07.745Z,2.90
2017-11-11T09:37:36.047Z,20.25
2017-11-11T09:40:03.590Z,6.47
2017-11-11T09:42:31.114Z,8.38
2017-11-11T09:44:58.657Z,6.22
2017-11-11T09:47:26.946Z,8.32
2017-11-11T09:49:55.254Z,6.58
2017-11-11T09:52:22.782Z,4.38
2017-11-11T09:54:50.330Z,7.62
2017-11-11T09:57:18.626Z,7.28
2017-11-11T09:59:46.170Z,4.10
2017-11-11T10:02:13.690Z,4.27
2017-11-11T10:04:41.231Z,8.40
2017-11-11T10:07:09.517Z,6.12
2017-11-11T10:09:37.057Z,7.57
2017-11-11T10:12:04.574Z,4.28
2017-11-11T10:14:32.889Z,6.60
2017-11-11T10:17:01.178Z,5.43
2017-11-11T10:19:28.714Z,21.10
2017-11-11T10:21:56.267Z,14.13
2017-11-11T10:24:23.798Z,9.57
2017-11-11T10:26:52.111Z,5.40
2017-11-11T10:29:19.637Z,3.73
2017-11-11T10:31:47.187Z,3.48
2017-11-11T10:34:14.714Z,8.25
2017-11-11T10:36:43.032Z,3.73
2017-11-11T10:39:10.566Z,7.17
2017-11-11T10:41:38.123Z,3.50
2017-11-11T10:44:05.658Z,5.28
2017-11-11T10:46:33.973Z,3.13
2017-11-11T10:49:01.506Z,5.18
2017-11-11T10:51:29.058Z,3.38
2017-11-11T10:53:56.586Z,4.22
2017-11-11T10:56:24.901Z,3.93
2017-11-11T10:58:52.421Z,5.13
2017-11-11T11:01:19.973Z,5.35
2017-11-11T11:03:47.498Z,4.82
2017-11-11T11:06:15.805Z,3.12
2017-11-11T11:08:43.349Z,2.63
2017-11-11T11:11:10.899Z,2.85
2017-11-11T11:13:38.432Z,2.72
2017-11-11T11:16:06.756Z,3.22
2017-11-11T11:18:34.282Z,3.60
2017-11-11T11:21:01.837Z,3.15
2017-11-11T11:23:29.361Z,2.77
2017-11-11T11:25:57.678Z,2.52
2017-11-11T11:28:25.214Z,2.60
2017-11-11T11:30:52.772Z,2.78
2017-11-11T11:33:20.305Z,3.43
2017-11-11T11:35:48.614Z,3.30
2017-11-11T11:38:16.141Z,2.96
2017-11-11T11:40:43.689Z,2.70
2017-11-11T11:43:11.216Z,2.25
2017-11-11T11:45:39.517Z,2.67
2017-11-11T11:48:07.075Z,2.53
2017-11-11T11:50:34.610Z,2.70
2017-11-11T11:53:02.161Z,2.23
2017-11-11T11:55:30.454Z,2.60
2017-11-11T11:57:58.017Z,2.88
2017-11-11T12:00:25.547Z,2.38
2017-11-11T12:02:53.093Z,2.22
2017-11-11T12:05:20.621Z,2.18
2017-11-11T12:07:48.933Z,2.25
2017-11-11T12:10:16.464Z,2.38
2017-11-11T12:12:44.039Z,4.00
2017-11-11T12:15:12.327Z,3.32
2017-11-11T12:17:40.648Z,2.42
2017-11-11T12:20:08.180Z,3.28
2017-11-11T12:22:35.725Z,3.34
2017-11-11T12:25:03.258Z,2.40
2017-11-11T12:27:31.574Z,2.10
2017-11-11T12:29:59.112Z,2.70
2017-11-11T12:32:26.691Z,2.58
2017-11-11T12:34:54.217Z,2.05
2017-11-11T12:37:22.531Z,2.40
2017-11-11T12:39:50.061Z,3.00
2017-11-11T12:42:17.624Z,3.06
2017-11-11T12:44:45.141Z,2.88
2017-11-11T12:47:13.457Z,2.70
2017-11-11T12:49:40.991Z,2.80
2017-11-11T12:52:09.305Z,2.40
2017-11-11T12:54:36.825Z,3.06
2017-11-11T12:57:05.150Z,3.24
2017-11-11T12:59:32.691Z,3.00
2017-11-11T13:02:00.246Z,2.62
2017-11-11T13:04:28.545Z,2.18
2017-11-11T13:06:57.245Z,2.06
2017-11-11T13:09:24.789Z,1.80
2017-11-11T13:11:52.357Z,2.06
2017-11-11T13:14:19.887Z,2.50
2017-11-11T13:16:48.178Z,2.42
2017-11-11T13:19:15.727Z,2.70
2017-11-11T13:21:43.255Z,3.18
2017-11-11T13:24:11.566Z,4.04
2017-11-11T13:26:39.862Z,2.92
2017-11-11T13:29:07.405Z,3.30
2017-11-11T13:31:34.929Z,2.50
2017-11-11T13:34:02.485Z,2.02
2017-11-11T13:36:30.787Z,2.62
2017-11-11T13:38:58.343Z,2.72
2017-11-11T13:41:25.875Z,5.68
2017-11-11T13:43:53.428Z,2.88
2017-11-11T13:46:21.725Z,2.40
2017-11-11T13:48:49.274Z,2.38
2017-11-11T13:51:16.806Z,2.14
2017-11-11T13:53:44.358Z,4.50
2017-11-11T13:56:12.657Z,2.80
2017-11-11T13:58:40.201Z,2.80
2017-11-11T14:01:07.725Z,2.68
2017-11-11T14:03:35.266Z,2.60
2017-11-11T14:06:03.555Z,3.30
2017-11-11T14:08:31.098Z,3.26
2017-11-11T14:10:59.402Z,2.54
2017-11-11T14:13:26.942Z,2.26
2017-11-11T14:15:55.243Z,2.06
2017-11-11T14:18:22.801Z,2.34
2017-11-11T14:20:50.325Z,2.16
2017-11-11T14:23:17.877Z,2.32
2017-11-11T14:25:46.170Z,2.38
2017-11-11T14:28:13.718Z,2.36
2017-11-11T14:30:41.250Z,3.80
2017-11-11T14:33:08.806Z,4.30
2017-11-11T14:35:37.131Z,7.00
2017-11-11T14:38:04.697Z,8.94
2017-11-11T14:40:32.997Z,36.52
2017-11-11T14:43:00.539Z,7.20
2017-11-11T14:45:28.858Z,9.56
2017-11-11T14:47:56.401Z,6.34
2017-11-11T14:50:23.958Z,6.30
2017-11-11T14:52:51.482Z,6.16
2017-11-11T14:55:19.035Z,6.66
2017-11-11T14:57:47.329Z,2.98
2017-11-11T15:00:14.873Z,2.95
2017-11-11T15:02:42.393Z,3.74
2017-11-11T15:05:09.946Z,3.82
2017-11-11T15:07:38.246Z,4.37
2017-11-11T15:10:05.791Z,5.56
2017-11-11T15:12:33.320Z,5.04
2017-11-11T15:15:00.869Z,5.35
2017-11-11T15:17:29.159Z,5.46
2017-11-11T15:19:56.735Z,5.84
2017-11-11T15:22:24.265Z,5.72
2017-11-11T15:24:52.585Z,5.55
2017-11-11T15:27:20.886Z,5.82
2017-11-11T15:29:48.450Z,5.63
2017-11-11T15:32:15.994Z,5.98
2017-11-11T15:34:44.312Z,5.58
2017-11-11T15:37:12.629Z,5.40
2017-11-11T15:39:40.199Z,4.70
2017-11-11T15:42:07.740Z,5.77
2017-11-11T15:44:35.299Z,7.57
2017-11-11T15:47:03.598Z,8.78
2017-11-11T15:49:31.147Z,7.68
2017-11-11T15:51:58.683Z,6.62
2017-11-11T15:54:26.238Z,13.22
2017-11-11T15:56:54.532Z,8.78
2017-11-11T15:59:22.089Z,7.68
2017-11-11T16:01:49.622Z,8.05
2017-11-11T16:04:17.173Z,9.48
2017-11-11T16:06:45.472Z,8.95
2017-11-11T16:09:13.125Z,12.05
2017-11-11T16:11:40.637Z,11.38
2017-11-11T16:14:08.172Z,12.05
2017-11-11T16:16:36.500Z,9.68
2017-11-11T16:19:04.801Z,10.47
2017-11-11T16:21:32.362Z,13.53
2017-11-11T16:23:59.893Z,8.68
2017-11-11T16:26:28.206Z,5.53
2017-11-11T16:28:56.510Z,7.67
2017-11-11T16:31:24.061Z,5.52
2017-11-11T16:33:52.349Z,5.83
2017-11-11T16:36:20.671Z,5.83
2017-11-11T16:38:48.966Z,6.22
2017-11-11T16:41:16.520Z,7.37
2017-11-11T16:43:44.059Z,6.82
2017-11-11T16:46:12.373Z,6.83
2017-11-11T16:48:39.910Z,6.57
2017-11-11T16:51:08.221Z,6.98
2017-11-11T16:53:36.522Z,6.90
2017-11-11T16:56:04.845Z,5.65
2017-11-11T16:58:33.155Z,10.60
2017-11-11T17:01:00.710Z,9.37
2017-11-11T17:03:29.009Z,8.18
2017-11-11T17:05:57.332Z,6.87
2017-11-11T17:08:24.865Z,5.37
2017-11-11T17:10:52.414Z,4.47
2017-11-11T17:13:19.963Z,4.83
2017-11-11T17:15:48.282Z,5.63
2017-11-11T17:18:15.813Z,4.85
2017-11-11T17:20:43.361Z,4.73
2017-11-11T17:23:10.907Z,4.82
2017-11-11T17:25:39.221Z,6.93
2017-11-11T17:28:06.761Z,9.58
2017-11-11T17:30:34.321Z,10.63
2017-11-11T17:33:01.858Z,6.58
2017-11-11T17:35:30.187Z,6.60
2017-11-11T17:37:57.731Z,5.50
2017-11-11T17:40:26.046Z,5.00
2017-11-11T17:42:54.403Z,5.27
2017-11-11T17:45:21.949Z,6.28
2017-11-11T17:47:50.272Z,5.22
2017-11-11T17:50:17.818Z,7.05
2017-11-11T17:52:45.370Z,5.32
2017-11-11T17:55:12.920Z,5.55
2017-11-11T17:57:41.249Z,6.47
2017-11-11T18:00:08.794Z,6.54
2017-11-11T18:02:36.355Z,6.75
2017-11-11T18:05:03.875Z,5.77
2017-11-11T18:07:32.202Z,7.27
2017-11-11T18:09:59.742Z,13.72
2017-11-11T18:12:28.066Z,6.53
2017-11-11T18:14:55.605Z,6.63
2017-11-11T18:17:23.945Z,6.87
2017-11-11T18:19:52.235Z,6.32
2017-11-11T18:22:19.789Z,6.32
2017-11-11T18:24:48.093Z,6.62
2017-11-11T18:27:16.494Z,10.37
2017-11-11T18:29:44.795Z,9.95
2017-11-11T18:32:12.352Z,8.43
2017-11-11T18:34:40.648Z,7.35
2017-11-11T18:37:08.970Z,8.42
2017-11-11T18:39:36.495Z,8.50
2017-11-11T18:42:04.810Z,16.62
2017-11-11T18:44:32.351Z,11.43
2017-11-11T18:47:00.682Z,12.30
2017-11-11T18:49:28.216Z,14.70
2017-11-11T18:51:55.769Z,19.58
2017-11-11T18:54:23.306Z,18.80
2017-11-11T18:56:51.630Z,17.25
2017-11-11T18:59:19.167Z,16.37
2017-11-11T19:01:46.722Z,13.47
2017-11-11T19:04:14.276Z,12.32
2017-11-11T19:06:42.598Z,12.05
2017-11-11T19:09:10.138Z,11.22
2017-11-11T19:11:37.677Z,11.38
2017-11-11T19:14:05.230Z,11.48
2017-11-11T19:16:33.526Z,11.70
2017-11-11T19:19:01.126Z,13.15
2017-11-11T19:21:28.682Z,11.03
2017-11-11T19:23:57.001Z,11.12
2017-11-11T19:26:25.321Z,14.07
2017-11-11T19:28:52.873Z,11.28
2017-11-11T19:31:20.427Z,10.10
2017-11-11T19:33:47.981Z,11.12
2017-11-11T19:36:16.285Z,11.67
2017-11-11T19:38:43.846Z,16.72
2017-11-11T19:41:11.380Z,17.30
2017-11-11T19:43:38.946Z,14.43
2017-11-11T19:46:07.277Z,17.87
2017-11-11T19:48:34.838Z,14.62
2017-11-11T19:51:02.378Z,13.42
2017-11-11T19:53:29.930Z,14.85
2017-11-11T19:55:58.233Z,18.90
2017-11-11T19:58:25.808Z,21.02
2017-11-11T20:00:53.349Z,14.17
2017-11-11T20:03:21.858Z,12.87
2017-11-11T20:05:50.154Z,15.13
2017-11-11T20:08:17.770Z,12.85
2017-11-11T20:10:46.066Z,10.93
2017-11-11T20:13:13.627Z,13.52
2017-11-11T20:15:41.929Z,12.75
2017-11-11T20:18:09.490Z,10.92
2017-11-11T20:20:37.024Z,17.77
2017-11-11T20:23:04.573Z,14.90
2017-11-11T20:25:32.982Z,15.35
2017-11-11T20:28:00.549Z,13.93
2017-11-11T20:30:28.183Z,17.80
2017-11-11T20:32:55.786Z,13.38
2017-11-11T20:35:23.381Z,13.53
2017-11-11T20:37:51.744Z,11.30
2017-11-11T20:40:19.311Z,13.22
2017-11-11T20:42:46.902Z,11.42
2017-11-11T20:45:14.457Z,13.27
2017-11-11T20:47:42.758Z,13.32
2017-11-11T20:50:10.319Z,12.42
2017-11-11T20:52:38.143Z,16.28
2017-11-11T20:55:05.694Z,15.33
2017-11-11T20:57:33.994Z,11.37
2017-11-11T21:00:01.602Z,16.52
2017-11-11T21:02:29.914Z,13.92
2017-11-11T21:04:57.466Z,14.58
2017-11-11T21:07:25.777Z,14.23
2017-11-11T21:09:53.330Z,15.45
2017-11-11T21:12:20.862Z,11.12
2017-11-11T21:14:48.419Z,11.43
2017-11-11T21:17:16.722Z,10.40
2017-11-11T21:19:44.286Z,11.73
2017-11-11T21:22:11.809Z,11.17
2017-11-11T21:24:39.362Z,14.67
2017-11-11T21:27:07.649Z,14.52
2017-11-11T21:29:35.205Z,18.92
2017-11-11T21:32:02.737Z,14.22
2017-11-11T21:34:30.289Z,15.07
2017-11-11T21:36:58.586Z,16.37
2017-11-11T21:39:26.133Z,14.80
2017-11-11T21:41:53.675Z,15.73
2017-11-11T21:44:21.221Z,16.37
2017-11-11T21:46:49.513Z,15.60
2017-11-11T21:49:17.817Z,12.75
2017-11-11T21:51:45.345Z,12.03
2017-11-11T21:54:13.674Z,12.45
2017-11-11T21:56:41.967Z,13.15
2017-11-11T21:59:09.514Z,13.40
2017-11-11T22:01:37.810Z,13.70
2017-11-11T22:04:05.369Z,12.95
2017-11-11T22:06:33.666Z,13.15
2017-11-11T22:09:01.968Z,12.70
2017-11-11T22:11:29.520Z,13.40
2017-11-11T22:13:57.046Z,14.13
2017-11-11T22:16:25.361Z,12.25
2017-11-11T22:18:52.881Z,13.02
2017-11-11T22:21:20.434Z,14.03
2017-11-11T22:23:48.734Z,15.58
2017-11-11T22:26:17.049Z,11.98
2017-11-11T22:28:44.585Z,38.82
2017-11-11T22:31:12.127Z,18.60
2017-11-11T22:33:40.417Z,92.07
2017-11-11T22:36:08.766Z,39.13
2017-11-11T22:38:36.294Z,20.00
2017-11-11T22:41:03.819Z,12.95
2017-11-11T22:43:31.370Z,12.08
2017-11-11T22:45:59.675Z,12.28
2017-11-11T22:48:27.229Z,11.53
2017-11-11T22:50:54.766Z,13.02
2017-11-11T22:53:22.317Z,13.02
2017-11-11T22:55:50.614Z,11.07
2017-11-11T22:58:18.181Z,12.52
2017-11-11T23:00:45.710Z,13.98
2017-11-11T23:03:13.241Z,13.42
2017-11-11T23:05:41.569Z,13.07
2017-11-11T23:08:09.106Z,10.53
2017-11-11T23:10:36.650Z,10.85
2017-11-11T23:13:04.179Z,11.95
2017-11-11T23:15:32.494Z,14.08
2017-11-11T23:18:00.028Z,14.83
2017-11-11T23:20:27.594Z,15.32
2017-11-11T23:22:55.894Z,13.35
2017-11-11T23:25:24.015Z,11.47
2017-11-11T23:27:52.335Z,13.22
2017-11-11T23:30:19.857Z,13.33
2017-11-11T23:32:47.406Z,14.45
2017-11-11T23:35:14.938Z,13.25
2017-11-11T23:37:43.256Z,13.82
2017-11-11T23:40:10.782Z,14.23
2017-11-11T23:42:38.378Z,15.40
2017-11-11T23:45:05.910Z,12.92
2017-11-11T23:47:34.207Z,20.02
2017-11-11T23:50:01.826Z,17.18
2017-11-11T23:52:29.352Z,14.37
2017-11-11T23:54:56.910Z,10.65
2017-11-11T23:57:25.213Z,11.52
2017-11-11T23:59:52.758Z,12.25
